Time;durP1;ratioP1;P1;durP2;ratioP2;P2;SDS_P1;SDS_P2;PMS_P1;PMS_P2;Temp;Humidity;BMP_temperature;BMP_pressure;BME280_temperature;BME280_humidity;BME280_pressure;Samples;Min_cycle;Max_cycle;Signal;HPM_P1;HPM_P2
2021/06/13 00:01:16;;;;;;;;;;;22.70;99.90;;;;;;5034269;28;19917;-78
2021/06/13 00:03:42;;;;;;;;;;;22.70;99.90;;;;;;5034734;28;19913;-78
2021/06/13 00:06:07;;;;;;;;;;;22.50;99.90;;;;;;5035320;28;19960;-78
2021/06/13 00:08:33;;;;;;;;;;;22.50;99.90;;;;;;5035209;28;19917;-78
2021/06/13 00:10:59;;;;;;;;;;;22.40;99.90;;;;;;5035447;28;20334;-79
2021/06/13 00:13:25;;;;;;;;;;;22.50;99.90;;;;;;5037594;28;20002;-78
2021/06/13 00:15:51;;;;;;;;;;;22.60;99.90;;;;;;5034335;28;20438;-78
2021/06/13 00:18:17;;;;;;;;;;;22.60;99.90;;;;;;5027123;28;20004;-77
2021/06/13 00:20:43;;;;;;;;;;;22.70;99.90;;;;;;5034900;28;19967;-78
2021/06/13 00:23:09;;;;;;;;;;;22.70;99.90;;;;;;5033989;28;20290;-78
2021/06/13 00:25:35;;;;;;;;;;;22.80;99.90;;;;;;5033766;28;19919;-78
2021/06/13 00:28:01;;;;;;;;;;;22.90;99.90;;;;;;5032974;28;19913;-79
2021/06/13 00:30:26;;;;;;;;;;;22.80;99.90;;;;;;5034641;28;19932;-78
2021/06/13 00:32:52;;;;;;;;;;;22.70;99.90;;;;;;5035781;28;19913;-78
2021/06/13 00:35:18;;;;;;;;;;;22.60;99.90;;;;;;5036380;28;19917;-78
2021/06/13 00:37:44;;;;;;;;;;;22.60;99.90;;;;;;5031866;28;19917;-79
2021/06/13 00:40:10;;;;;;;;;;;22.50;99.90;;;;;;5033806;28;19999;-78
2021/06/13 00:42:36;;;;;;;;;;;22.50;99.90;;;;;;5034479;28;20012;-77
2021/06/13 00:45:02;;;;;;;;;;;22.50;99.90;;;;;;5033955;28;19913;-77
2021/06/13 00:47:27;;;;;;;;;;;22.40;99.90;;;;;;5033221;28;20012;-77
2021/06/13 00:49:54;;;;;;;;;;;22.40;99.90;;;;;;5011541;28;20047;-78
2021/06/13 00:52:21;;;;;;;;;;;22.40;99.90;;;;;;5033694;28;19913;-78
2021/06/13 00:54:47;;;;;;;;;;;22.40;99.90;;;;;;5034227;28;19913;-78
2021/06/13 00:57:12;;;;;;;;;;;22.40;99.90;;;;;;5032769;28;19932;-78
2021/06/13 00:59:38;;;;;;;;;;;22.30;99.90;;;;;;5033030;28;19918;-79
2021/06/13 01:02:04;;;;;;;;;;;22.20;99.90;;;;;;5032640;28;20009;-79
2021/06/13 01:04:29;;;;;;;;;;;22.20;99.90;;;;;;5034685;28;19912;-78
2021/06/13 01:07:03;;;;;;;;;;;22.40;99.90;;;;;;5034404;28;20394;-79
2021/06/13 01:09:41;;;;;;;;;;;22.40;99.90;;;;;;5015408;28;19928;-77
2021/06/13 01:12:06;;;;;;;;;;;22.40;99.90;;;;;;5033044;28;19921;-78
2021/06/13 01:14:36;;;;;;;;;;;22.50;99.90;;;;;;5034493;28;20397;-78
2021/06/13 01:17:20;;;;;;;;;;;22.70;99.90;;;;;;5033585;28;19917;-77
2021/06/13 01:19:54;;;;;;;;;;;22.70;99.90;;;;;;5029997;28;19909;-77
2021/06/13 01:22:20;;;;;;;;;;;22.70;99.90;;;;;;5031852;28;20441;-76
2021/06/13 01:25:04;;;;;;;;;;;22.60;99.90;;;;;;5033483;28;19916;-77
2021/06/13 01:27:36;;;;;;;;;;;22.50;99.90;;;;;;5032561;28;19917;-77
2021/06/13 01:30:03;;;;;;;;;;;22.30;99.90;;;;;;5014111;28;19971;-77
2021/06/13 01:32:30;;;;;;;;;;;22.30;99.90;;;;;;5030965;28;19921;-77
2021/06/13 01:35:01;;;;;;;;;;;22.30;99.90;;;;;;5015445;28;19921;-78
2021/06/13 01:37:27;;;;;;;;;;;22.20;99.90;;;;;;5026960;28;19967;-78
2021/06/13 01:39:57;;;;;;;;;;;22.20;99.90;;;;;;5032435;28;19959;-78
2021/06/13 01:42:23;;;;;;;;;;;22.30;99.90;;;;;;5032408;28;19919;-77
2021/06/13 01:44:51;;;;;;;;;;;22.20;99.90;;;;;;5032448;28;19957;-77
2021/06/13 01:47:17;;;;;;;;;;;22.20;99.90;;;;;;5032359;28;19936;-77
2021/06/13 01:49:43;;;;;;;;;;;22.10;99.90;;;;;;5030515;28;19917;-77
2021/06/13 01:52:10;;;;;;;;;;;22.10;99.90;;;;;;5029788;28;19913;-77
2021/06/13 01:54:36;;;;;;;;;;;22.10;99.90;;;;;;5034199;28;20004;-78
2021/06/13 01:57:02;;;;;;;;;;;22.20;99.90;;;;;;5016171;28;19975;-78
2021/06/13 01:59:28;;;;;;;;;;;22.20;99.90;;;;;;5029447;28;20012;-78
2021/06/13 02:01:56;;;;;;;;;;;22.20;99.90;;;;;;5031440;28;19917;-78
2021/06/13 02:04:24;;;;;;;;;;;22.20;99.90;;;;;;5032196;28;19913;-78
2021/06/13 02:06:51;;;;;;;;;;;22.20;99.90;;;;;;5032000;28;20405;-78
2021/06/13 02:09:18;;;;;;;;;;;22.20;99.90;;;;;;5032639;28;19917;-78
2021/06/13 02:11:45;;;;;;;;;;;22.20;99.90;;;;;;5030570;28;20252;-79
2021/06/13 02:14:11;;;;;;;;;;;22.10;99.90;;;;;;5031987;28;20305;-77
2021/06/13 02:16:41;;;;;;;;;;;22.10;99.90;;;;;;5032303;28;19920;-78
2021/06/13 02:19:07;;;;;;;;;;;22.10;99.90;;;;;;5032363;28;19913;-78
2021/06/13 02:21:33;;;;;;;;;;;22.00;99.90;;;;;;5033487;28;19936;-78
2021/06/13 02:23:59;;;;;;;;;;;22.00;99.90;;;;;;5032117;28;19914;-77
2021/06/13 02:26:25;;;;;;;;;;;22.10;99.90;;;;;;5032362;28;19913;-78
2021/06/13 02:28:53;;;;;;;;;;;22.20;99.90;;;;;;5032100;28;20010;-78
2021/06/13 02:31:20;;;;;;;;;;;22.20;99.90;;;;;;5012067;28;19959;-77
2021/06/13 02:33:46;;;;;;;;;;;22.20;99.90;;;;;;5030743;28;19921;-77
2021/06/13 02:36:12;;;;;;;;;;;22.20;99.90;;;;;;5028056;28;19913;-78
2021/06/13 02:38:38;;;;;;;;;;;22.10;99.90;;;;;;5029312;28;19921;-78
2021/06/13 02:41:03;;;;;;;;;;;22.20;99.90;;;;;;5027802;28;19935;-78
2021/06/13 02:43:29;;;;;;;;;;;22.10;99.90;;;;;;5030663;28;19922;-78
2021/06/13 02:45:55;;;;;;;;;;;22.10;99.90;;;;;;5012577;28;19913;-77
2021/06/13 02:48:22;;;;;;;;;;;22.20;99.90;;;;;;5031955;28;19909;-77
2021/06/13 02:50:47;;;;;;;;;;;22.30;99.90;;;;;;5031857;28;19913;-77
2021/06/13 02:53:42;;;;;;;;;;;22.30;99.90;;;;;;5030887;28;19932;-77
2021/06/13 02:56:26;;;;;;;;;;;22.20;99.90;;;;;;5032644;28;20314;-77
2021/06/13 02:59:04;;;;;;;;;;;22.20;99.90;;;;;;5028536;28;19917;-77
2021/06/13 03:01:30;;;;;;;;;;;22.10;99.90;;;;;;5030458;28;19921;-77
2021/06/13 03:03:56;;;;;;;;;;;22.00;99.90;;;;;;5030322;28;19913;-78
2021/06/13 03:06:23;;;;;;;;;;;22.00;99.90;;;;;;5031437;28;19992;-78
2021/06/13 03:08:49;;;;;;;;;;;22.00;99.90;;;;;;5029906;28;19917;-78
2021/06/13 03:11:15;;;;;;;;;;;22.00;99.90;;;;;;5014713;28;19971;-78
2021/06/13 03:13:42;;;;;;;;;;;22.10;99.90;;;;;;5029672;28;19921;-78
2021/06/13 03:16:08;;;;;;;;;;;22.00;99.90;;;;;;5031633;28;19913;-78
2021/06/13 03:18:35;;;;;;;;;;;22.00;99.90;;;;;;5032649;28;19909;-78
2021/06/13 03:21:00;;;;;;;;;;;22.00;99.90;;;;;;5031770;28;19913;-77
2021/06/13 03:23:28;;;;;;;;;;;22.10;99.90;;;;;;5033952;28;19920;-76
2021/06/13 03:25:55;;;;;;;;;;;22.00;99.90;;;;;;5033185;28;19913;-78
2021/06/13 03:28:21;;;;;;;;;;;22.00;99.90;;;;;;5031414;28;19913;-77
2021/06/13 03:30:47;;;;;;;;;;;22.10;99.90;;;;;;5031851;28;20393;-77
2021/06/13 03:33:14;;;;;;;;;;;22.10;99.90;;;;;;5013128;28;19901;-77
2021/06/13 03:35:40;;;;;;;;;;;22.10;99.90;;;;;;5029557;28;19925;-78
2021/06/13 03:38:06;;;;;;;;;;;22.10;99.90;;;;;;5030357;28;19932;-78
2021/06/13 03:40:32;;;;;;;;;;;22.00;99.90;;;;;;5031562;28;19913;-78
2021/06/13 03:42:58;;;;;;;;;;;22.00;99.90;;;;;;5033002;28;19913;-78
2021/06/13 03:45:24;;;;;;;;;;;22.00;99.90;;;;;;5030794;28;19967;-78
2021/06/13 03:47:52;;;;;;;;;;;22.00;99.90;;;;;;5011623;28;19913;-78
2021/06/13 03:50:18;;;;;;;;;;;22.00;99.90;;;;;;5030893;28;19978;-79
2021/06/13 03:52:44;;;;;;;;;;;22.00;99.90;;;;;;5032348;28;19909;-79
2021/06/13 03:55:10;;;;;;;;;;;22.10;99.90;;;;;;5035240;28;19924;-78
2021/06/13 03:57:38;;;;;;;;;;;22.00;99.90;;;;;;5035077;28;20462;-78
2021/06/13 04:00:04;;;;;;;;;;;22.10;99.90;;;;;;5038213;28;19949;-77
2021/06/13 04:02:30;;;;;;;;;;;22.10;99.90;;;;;;5037058;28;19918;-79
2021/06/13 04:04:56;;;;;;;;;;;22.10;99.90;;;;;;5030460;28;19928;-79
2021/06/13 04:07:21;;;;;;;;;;;22.20;99.90;;;;;;5037244;28;20334;-78
2021/06/13 04:09:47;;;;;;;;;;;22.30;99.90;;;;;;5037858;28;19924;-78
2021/06/13 04:12:14;;;;;;;;;;;22.40;99.90;;;;;;5037363;28;20466;-78
2021/06/13 04:14:41;;;;;;;;;;;22.40;99.90;;;;;;5036762;28;19960;-78
2021/06/13 04:17:06;;;;;;;;;;;22.50;99.90;;;;;;5036343;28;19924;-79
2021/06/13 04:19:33;;;;;;;;;;;22.60;99.90;;;;;;5036924;28;20268;-78
2021/06/13 04:21:59;;;;;;;;;;;22.70;99.90;;;;;;5042639;28;19936;-77
2021/06/13 04:24:25;;;;;;;;;;;22.70;99.90;;;;;;5040932;28;19932;-79
2021/06/13 04:26:53;;;;;;;;;;;22.70;99.90;;;;;;5040730;28;19948;-76
2021/06/13 04:29:19;;;;;;;;;;;22.80;99.90;;;;;;5041520;28;19967;-78
2021/06/13 04:31:44;;;;;;;;;;;22.90;99.90;;;;;;5031492;28;19913;-79
2021/06/13 04:34:10;;;;;;;;;;;22.90;99.90;;;;;;5035825;28;19913;-79
2021/06/13 04:36:35;;;;;;;;;;;23.00;99.90;;;;;;5036860;28;19913;-78
2021/06/13 04:39:01;;;;;;;;;;;23.10;99.90;;;;;;5035161;28;20000;-79
2021/06/13 04:41:28;;;;;;;;;;;23.10;99.90;;;;;;5034759;28;19925;-78
2021/06/13 04:43:53;;;;;;;;;;;23.10;99.90;;;;;;5035368;28;20451;-77
2021/06/13 04:46:22;;;;;;;;;;;23.10;99.90;;;;;;5029340;28;19917;-77
2021/06/13 04:48:48;;;;;;;;;;;23.10;99.90;;;;;;5032101;28;19964;-77
2021/06/13 04:51:14;;;;;;;;;;;23.20;99.90;;;;;;5035697;28;19955;-78
2021/06/13 04:53:52;;;;;;;;;;;23.20;99.90;;;;;;5034472;28;19917;-77
2021/06/13 04:56:36;;;;;;;;;;;23.30;99.90;;;;;;5035119;28;19913;-76
2021/06/13 04:59:02;;;;;;;;;;;23.30;99.90;;;;;;5015412;28;20358;-78
2021/06/13 05:01:27;;;;;;;;;;;23.30;99.90;;;;;;5033108;28;19946;-79
2021/06/13 05:03:53;;;;;;;;;;;23.30;99.90;;;;;;5035146;28;19955;-77
2021/06/13 05:06:19;;;;;;;;;;;23.40;99.90;;;;;;5033154;28;19913;-78
2021/06/13 05:08:45;;;;;;;;;;;23.40;99.90;;;;;;5035180;28;19940;-75
2021/06/13 05:11:10;;;;;;;;;;;23.40;99.90;;;;;;5035126;28;19914;-77
2021/06/13 05:13:36;;;;;;;;;;;23.40;99.90;;;;;;5034205;28;20294;-77
2021/06/13 05:16:02;;;;;;;;;;;23.40;99.90;;;;;;5034463;28;19917;-78
2021/06/13 05:18:28;;;;;;;;;;;23.50;99.90;;;;;;5034642;28;19913;-77
2021/06/13 05:20:54;;;;;;;;;;;23.40;99.90;;;;;;5034353;28;19920;-79
2021/06/13 05:23:20;;;;;;;;;;;23.50;99.90;;;;;;5034817;28;19924;-76
2021/06/13 05:25:46;;;;;;;;;;;23.70;99.90;;;;;;5033826;28;19917;-78
2021/06/13 05:28:14;;;;;;;;;;;23.70;99.90;;;;;;5035116;28;20346;-76
2021/06/13 05:30:40;;;;;;;;;;;23.80;99.90;;;;;;5034114;28;20020;-77
2021/06/13 05:33:06;;;;;;;;;;;23.80;99.90;;;;;;5034587;28;19967;-76
2021/06/13 05:35:32;;;;;;;;;;;23.90;99.90;;;;;;5034754;28;19913;-76
2021/06/13 05:37:58;;;;;;;;;;;24.00;99.90;;;;;;5035014;28;19913;-77
2021/06/13 05:40:24;;;;;;;;;;;24.10;99.90;;;;;;5018847;28;19913;-78
2021/06/13 05:42:51;;;;;;;;;;;24.20;99.90;;;;;;5038124;28;19996;-78
2021/06/13 05:45:17;;;;;;;;;;;24.20;99.90;;;;;;5029838;28;19917;-79
2021/06/13 05:47:43;;;;;;;;;;;24.30;99.90;;;;;;5047271;28;19928;-77
2021/06/13 05:50:09;;;;;;;;;;;24.30;99.90;;;;;;5046277;28;19916;-73
2021/06/13 05:52:35;;;;;;;;;;;24.30;99.90;;;;;;5032007;28;20448;-74
2021/06/13 05:55:01;;;;;;;;;;;24.50;99.90;;;;;;5032184;28;19920;-71
2021/06/13 05:57:31;;;;;;;;;;;24.70;99.90;;;;;;5028688;28;20375;-72
2021/06/13 06:00:00;;;;;;;;;;;24.90;99.90;;;;;;5031353;28;19920;-71
2021/06/13 06:02:26;;;;;;;;;;;25.00;99.90;;;;;;5029121;28;20343;-72
2021/06/13 06:04:52;;;;;;;;;;;25.00;99.90;;;;;;5030768;28;19920;-72
2021/06/13 06:07:18;;;;;;;;;;;25.10;99.90;;;;;;5028409;28;20453;-72
2021/06/13 06:09:43;;;;;;;;;;;25.20;99.90;;;;;;5029697;28;21369;-70
2021/06/13 06:12:10;;;;;;;;;;;25.30;99.90;;;;;;5031656;28;19921;-71
2021/06/13 06:14:35;;;;;;;;;;;25.30;99.90;;;;;;5030990;28;20320;-72
2021/06/13 06:17:01;;;;;;;;;;;25.50;99.90;;;;;;5028164;28;19963;-70
2021/06/13 06:19:27;;;;;;;;;;;25.40;99.90;;;;;;5030541;28;19913;-70
2021/06/13 06:21:53;;;;;;;;;;;25.40;99.90;;;;;;5030710;28;19909;-71
2021/06/13 06:24:18;;;;;;;;;;;25.40;99.90;;;;;;5012679;28;20446;-69
2021/06/13 06:26:44;;;;;;;;;;;25.40;99.90;;;;;;5031130;28;19967;-69
2021/06/13 06:29:09;;;;;;;;;;;25.50;99.90;;;;;;5030121;28;20316;-71
2021/06/13 06:31:35;;;;;;;;;;;25.50;99.90;;;;;;5028891;28;19913;-71
2021/06/13 06:34:01;;;;;;;;;;;25.70;99.90;;;;;;5031351;28;19914;-71
2021/06/13 06:36:26;;;;;;;;;;;25.80;99.90;;;;;;5027735;28;19913;-70
2021/06/13 06:38:52;;;;;;;;;;;25.90;99.90;;;;;;5031155;28;20334;-71
2021/06/13 06:41:17;;;;;;;;;;;26.00;99.90;;;;;;5027947;28;19921;-71
2021/06/13 06:43:43;;;;;;;;;;;26.10;99.90;;;;;;5029444;28;19920;-72
2021/06/13 06:46:08;;;;;;;;;;;26.10;99.90;;;;;;5028428;28;20260;-72
2021/06/13 06:48:34;;;;;;;;;;;26.00;99.90;;;;;;5025938;28;19910;-72
2021/06/13 06:51:00;;;;;;;;;;;26.00;99.90;;;;;;5030370;28;20141;-72
2021/06/13 06:53:25;;;;;;;;;;;26.00;99.90;;;;;;5030924;28;19913;-72
2021/06/13 06:55:51;;;;;;;;;;;26.00;99.90;;;;;;5031392;28;20047;-71
2021/06/13 06:58:16;;;;;;;;;;;26.20;99.90;;;;;;5028326;28;19917;-71
2021/06/13 07:00:42;;;;;;;;;;;26.30;99.90;;;;;;5030522;28;20398;-71
2021/06/13 07:03:11;;;;;;;;;;;26.40;99.90;;;;;;5030466;28;19917;-71
2021/06/13 07:05:39;;;;;;;;;;;26.60;99.90;;;;;;5030164;28;19921;-71
2021/06/13 07:08:05;;;;;;;;;;;26.60;99.90;;;;;;5030036;28;19920;-72
2021/06/13 07:10:31;;;;;;;;;;;26.80;99.90;;;;;;5030761;28;20356;-72
2021/06/13 07:12:56;;;;;;;;;;;26.90;99.90;;;;;;5029972;28;19913;-71
2021/06/13 07:15:22;;;;;;;;;;;27.00;99.90;;;;;;5028418;28;20318;-72
2021/06/13 07:17:48;;;;;;;;;;;27.10;99.90;;;;;;5029713;28;19913;-71
2021/06/13 07:20:14;;;;;;;;;;;27.20;99.90;;;;;;5031285;28;19917;-72
2021/06/13 07:22:40;;;;;;;;;;;27.00;99.90;;;;;;5028805;28;19921;-72
2021/06/13 07:25:06;;;;;;;;;;;27.00;99.90;;;;;;5031264;28;19959;-71
2021/06/13 07:27:32;;;;;;;;;;;27.00;99.90;;;;;;5031568;28;19944;-72
2021/06/13 07:29:58;;;;;;;;;;;27.10;99.90;;;;;;5034771;28;19917;-72
2021/06/13 07:32:24;;;;;;;;;;;27.30;99.90;;;;;;5038200;28;19913;-72
2021/06/13 07:34:49;;;;;;;;;;;27.40;99.90;;;;;;5030994;28;19943;-72
2021/06/13 07:37:15;;;;;;;;;;;27.50;99.90;;;;;;5032524;28;19913;-72
2021/06/13 07:39:41;;;;;;;;;;;27.30;99.90;;;;;;5034372;28;19909;-72
2021/06/13 07:42:08;;;;;;;;;;;27.10;99.90;;;;;;5031768;28;20058;-72
2021/06/13 07:44:34;;;;;;;;;;;27.00;99.90;;;;;;5012921;28;20091;-72
2021/06/13 07:47:00;;;;;;;;;;;27.00;99.90;;;;;;5031543;28;20067;-72
2021/06/13 07:49:26;;;;;;;;;;;27.10;99.90;;;;;;5033072;28;19917;-72
2021/06/13 07:51:52;;;;;;;;;;;27.20;99.90;;;;;;5033847;28;19936;-71
2021/06/13 07:54:18;;;;;;;;;;;27.30;99.90;;;;;;5033239;28;19913;-71
2021/06/13 07:56:43;;;;;;;;;;;27.30;99.90;;;;;;5032215;28;19913;-71
2021/06/13 07:59:09;;;;;;;;;;;27.40;99.90;;;;;;5032660;28;20388;-71
2021/06/13 08:01:34;;;;;;;;;;;27.50;99.90;;;;;;5031320;28;19921;-72
2021/06/13 08:04:00;;;;;;;;;;;27.50;99.90;;;;;;5033833;28;19913;-72
2021/06/13 08:06:26;;;;;;;;;;;27.50;99.90;;;;;;5032323;28;19913;-72
2021/06/13 08:08:51;;;;;;;;;;;27.60;99.90;;;;;;5031659;28;19917;-72
2021/06/13 08:11:17;;;;;;;;;;;27.80;99.90;;;;;;5031114;28;19979;-72
2021/06/13 08:13:42;;;;;;;;;;;27.70;99.90;;;;;;5032981;28;20021;-73
2021/06/13 08:16:08;;;;;;;;;;;27.70;99.90;;;;;;5034446;28;19939;-71
2021/06/13 08:18:34;;;;;;;;;;;27.80;99.90;;;;;;5033215;28;19967;-72
2021/06/13 08:20:59;;;;;;;;;;;27.80;99.90;;;;;;5034428;28;19913;-74
2021/06/13 08:23:25;;;;;;;;;;;27.80;99.90;;;;;;5031989;28;20339;-73
2021/06/13 08:25:51;;;;;;;;;;;28.00;99.90;;;;;;5033787;28;19967;-72
2021/06/13 08:28:18;;;;;;;;;;;28.00;99.90;;;;;;5012004;28;19921;-73
2021/06/13 08:30:44;;;;;;;;;;;28.10;99.90;;;;;;5032459;28;19917;-73
2021/06/13 08:33:10;;;;;;;;;;;28.10;99.90;;;;;;5033150;28;19913;-73
2021/06/13 08:35:35;;;;;;;;;;;28.30;99.90;;;;;;5033312;28;20047;-73
2021/06/13 08:38:03;;;;;;;;;;;28.20;99.90;;;;;;5031418;28;20402;-74
2021/06/13 08:40:29;;;;;;;;;;;28.10;99.90;;;;;;5014537;28;20371;-74
2021/06/13 08:42:55;;;;;;;;;;;27.80;99.90;;;;;;5030986;28;20256;-72
2021/06/13 08:45:21;;;;;;;;;;;27.80;99.90;;;;;;5012302;28;19924;-73
2021/06/13 08:47:50;;;;;;;;;;;27.90;99.90;;;;;;5026298;28;20012;-74
2021/06/13 08:50:16;;;;;;;;;;;28.00;99.90;;;;;;5030176;28;20453;-72
2021/06/13 08:52:42;;;;;;;;;;;28.00;99.90;;;;;;5030418;28;19998;-72
2021/06/13 08:55:09;;;;;;;;;;;28.10;99.90;;;;;;5029074;28;19921;-72
2021/06/13 08:57:35;;;;;;;;;;;28.20;99.90;;;;;;5030319;28;19939;-73
2021/06/13 09:00:00;;;;;;;;;;;28.20;99.90;;;;;;5024606;28;20205;-72
2021/06/13 09:02:26;;;;;;;;;;;27.90;99.90;;;;;;5025976;28;20379;-72
2021/06/13 09:04:51;;;;;;;;;;;28.00;99.90;;;;;;5025888;28;20152;-73
2021/06/13 09:07:24;;;;;;;;;;;28.00;99.90;;;;;;5031116;28;19955;-73
2021/06/13 09:09:50;;;;;;;;;;;28.30;99.90;;;;;;5028629;28;20012;-72
2021/06/13 09:12:16;;;;;;;;;;;28.20;99.90;;;;;;5029474;28;19913;-73
2021/06/13 09:14:43;;;;;;;;;;;28.20;99.90;;;;;;5033204;28;20435;-68
2021/06/13 09:17:17;;;;;;;;;;;28.00;99.90;;;;;;5033183;28;20007;-74
2021/06/13 09:20:01;;;;;;;;;;;28.10;99.90;;;;;;5032759;28;20330;-73
2021/06/13 09:22:26;;;;;;;;;;;28.20;99.90;;;;;;5032658;28;19988;-73
2021/06/13 09:25:04;;;;;;;;;;;28.00;99.90;;;;;;5032818;28;19913;-72
2021/06/13 09:27:29;;;;;;;;;;;28.10;99.90;;;;;;5031834;28;19921;-74
2021/06/13 09:29:55;;;;;;;;;;;28.00;99.90;;;;;;5034224;28;19971;-76
2021/06/13 09:32:21;;;;;;;;;;;28.10;99.90;;;;;;5033340;28;20449;-75
2021/06/13 09:35:06;;;;;;;;;;;27.90;99.90;;;;;;5030186;28;19913;-68
2021/06/13 09:37:31;;;;;;;;;;;27.90;99.90;;;;;;5030419;28;19914;-68
2021/06/13 09:40:07;;;;;;;;;;;28.10;99.90;;;;;;5031294;28;20011;-68
2021/06/13 09:42:35;;;;;;;;;;;28.10;99.90;;;;;;5031281;28;19968;-75
2021/06/13 09:45:01;;;;;;;;;;;28.10;99.90;;;;;;5032658;28;20375;-75
2021/06/13 09:47:30;;;;;;;;;;;28.20;99.90;;;;;;5031685;28;19919;-75
2021/06/13 09:49:55;;;;;;;;;;;28.10;99.90;;;;;;5032961;28;19936;-76
2021/06/13 09:52:27;;;;;;;;;;;28.20;99.90;;;;;;5027830;28;20367;-75
2021/06/13 09:55:21;;;;;;;;;;;28.20;99.90;;;;;;5029704;28;19913;-76
2021/06/13 09:58:05;;;;;;;;;;;28.40;99.90;;;;;;5025539;28;19917;-75
2021/06/13 10:00:30;;;;;;;;;;;28.50;99.90;;;;;;5032517;28;19954;-76
2021/06/13 10:02:56;;;;;;;;;;;28.60;99.90;;;;;;5032116;28;19940;-78
2021/06/13 10:05:21;;;;;;;;;;;28.50;99.90;;;;;;5033662;28;19909;-77
2021/06/13 10:07:47;;;;;;;;;;;28.30;99.90;;;;;;5029573;28;20006;-77
2021/06/13 10:10:12;;;;;;;;;;;28.40;99.90;;;;;;5032688;28;20009;-77
2021/06/13 10:12:54;;;;;;;;;;;28.50;99.90;;;;;;5033501;28;19909;-76
2021/06/13 10:15:20;;;;;;;;;;;28.50;99.90;;;;;;5032245;28;20310;-77
2021/06/13 10:17:47;;;;;;;;;;;28.60;99.90;;;;;;5032739;28;19913;-75
2021/06/13 10:20:25;;;;;;;;;;;28.20;99.90;;;;;;5030544;28;19994;-74
2021/06/13 10:22:51;;;;;;;;;;;28.10;99.90;;;;;;5030211;28;20012;-78
2021/06/13 10:25:16;;;;;;;;;;;28.20;99.90;;;;;;5033469;28;20009;-77
2021/06/13 10:27:42;;;;;;;;;;;28.00;99.90;;;;;;5030987;28;19968;-74
2021/06/13 10:30:08;;;;;;;;;;;28.00;99.90;;;;;;5031158;28;20363;-78
2021/06/13 10:32:34;;;;;;;;;;;28.10;99.90;;;;;;5030944;28;20480;-75
2021/06/13 10:35:03;;;;;;;;;;;28.00;99.90;;;;;;5031765;28;19960;-75
2021/06/13 10:37:29;;;;;;;;;;;28.00;99.90;;;;;;5030134;28;19921;-75
2021/06/13 10:39:54;;;;;;;;;;;28.10;99.90;;;;;;5028864;28;20005;-75
2021/06/13 10:42:20;;;;;;;;;;;28.30;99.90;;;;;;5030752;28;19924;-74
2021/06/13 10:44:50;;;;;;;;;;;28.30;99.90;;;;;;5029697;28;21495;-76
2021/06/13 10:47:16;;;;;;;;;;;28.30;99.90;;;;;;5028849;28;19952;-76
2021/06/13 10:49:46;;;;;;;;;;;28.40;99.90;;;;;;5011797;28;20012;-77
2021/06/13 10:52:11;;;;;;;;;;;28.40;99.90;;;;;;5011019;28;19979;-75
2021/06/13 10:54:41;;;;;;;;;;;28.60;99.90;;;;;;5030718;28;19914;-76
2021/06/13 10:57:09;;;;;;;;;;;28.60;99.90;;;;;;5030516;28;19921;-73
2021/06/13 10:59:37;;;;;;;;;;;28.70;99.90;;;;;;5026236;28;20279;-73
2021/06/13 11:02:08;;;;;;;;;;;28.80;99.90;;;;;;5014219;28;19992;-74
2021/06/13 11:04:47;;;;;;;;;;;28.90;99.90;;;;;;5032633;28;19928;-76
2021/06/13 11:07:35;;;;;;;;;;;29.10;99.90;;;;;;5034848;28;20797;-74
2021/06/13 11:10:18;;;;;;;;;;;29.00;99.90;;;;;;5034121;28;19917;-75
2021/06/13 11:12:49;;;;;;;;;;;28.90;99.90;;;;;;5031495;28;19936;-73
2021/06/13 11:15:17;;;;;;;;;;;28.90;99.90;;;;;;5015903;28;19917;-75
2021/06/13 11:18:06;;;;;;;;;;;29.00;99.90;;;;;;5034798;28;19924;-75
2021/06/13 11:23:00;;;;;;;;;;;29.10;99.90;;;;;;5033245;28;20319;-75
2021/06/13 11:25:26;;;;;;;;;;;29.20;99.90;;;;;;5036591;28;19913;-74
2021/06/13 11:28:10;;;;;;;;;;;29.30;99.90;;;;;;5034013;28;19909;-74
2021/06/13 11:30:40;;;;;;;;;;;29.30;99.90;;;;;;5030256;28;19971;-72
2021/06/13 11:33:06;;;;;;;;;;;29.30;99.90;;;;;;5034186;28;20004;-74
2021/06/13 11:35:34;;;;;;;;;;;29.30;99.90;;;;;;5034330;28;19983;-74
2021/06/13 11:38:09;;;;;;;;;;;29.40;99.90;;;;;;5032525;28;19913;-74
2021/06/13 11:40:35;;;;;;;;;;;29.10;99.90;;;;;;5028394;28;19913;-75
2021/06/13 11:43:14;;;;;;;;;;;29.20;99.90;;;;;;5032851;28;19913;-73
2021/06/13 11:45:57;;;;;;;;;;;29.00;99.90;;;;;;5029954;28;19966;-75
2021/06/13 11:48:27;;;;;;;;;;;29.10;99.90;;;;;;5014764;28;19948;-74
2021/06/13 11:51:05;;;;;;;;;;;29.40;99.90;;;;;;5034249;28;20048;-73
2021/06/13 11:53:49;;;;;;;;;;;29.30;99.90;;;;;;5034122;28;19913;-75
2021/06/13 11:56:34;;;;;;;;;;;29.40;99.90;;;;;;5015240;28;19963;-74
2021/06/13 11:59:05;;;;;;;;;;;29.30;99.90;;;;;;5033059;28;19917;-74
2021/06/13 12:01:35;;;;;;;;;;;29.30;99.90;;;;;;5016910;28;19948;-74
2021/06/13 12:04:02;;;;;;;;;;;29.20;99.90;;;;;;5037706;28;19913;-73
2021/06/13 12:06:28;;;;;;;;;;;29.20;99.90;;;;;;5053106;28;19897;-73
2021/06/13 12:08:54;;;;;;;;;;;29.30;99.90;;;;;;5050681;28;19917;-72
2021/06/13 12:11:38;;;;;;;;;;;29.40;99.90;;;;;;5046854;28;19968;-72
2021/06/13 12:14:17;;;;;;;;;;;29.40;99.90;;;;;;5034684;28;19940;-71
2021/06/13 12:16:43;;;;;;;;;;;29.50;99.90;;;;;;5030815;28;19920;-72
2021/06/13 12:19:08;;;;;;;;;;;29.50;99.90;;;;;;5035002;28;20394;-72
2021/06/13 12:21:34;;;;;;;;;;;29.60;99.90;;;;;;5036049;28;19913;-72
2021/06/13 12:24:18;;;;;;;;;;;29.80;99.90;;;;;;5033796;28;19952;-72
2021/06/13 12:29:28;;;;;;;;;;;30.00;99.90;;;;;;5034432;28;19919;-73
2021/06/13 12:31:54;;;;;;;;;;;30.00;99.90;;;;;;5034985;28;20003;-73
2021/06/13 12:34:20;;;;;;;;;;;30.00;99.90;;;;;;5035345;28;19909;-71
2021/06/13 12:36:53;;;;;;;;;;;29.90;99.90;;;;;;5033974;28;20298;-71
2021/06/13 12:39:28;;;;;;;;;;;30.00;99.90;;;;;;5030651;28;20407;-72
2021/06/13 12:42:11;;;;;;;;;;;30.00;99.90;;;;;;5034409;28;20534;-70
2021/06/13 12:44:37;;;;;;;;;;;30.10;99.90;;;;;;5031039;28;19970;-72
2021/06/13 12:47:03;;;;;;;;;;;30.00;99.90;;;;;;5034859;28;19913;-73
2021/06/13 12:49:38;;;;;;;;;;;30.10;99.90;;;;;;5033257;28;20286;-73
2021/06/13 12:52:10;;;;;;;;;;;30.40;99.90;;;;;;5034613;28;19936;-73
2021/06/13 12:54:36;;;;;;;;;;;30.60;99.90;;;;;;5031328;28;19989;-73
2021/06/13 12:57:01;;;;;;;;;;;30.80;99.90;;;;;;5039368;28;19913;-73
2021/06/13 12:59:27;;;;;;;;;;;30.00;99.90;;;;;;5038668;28;19940;-72
2021/06/13 13:01:53;;;;;;;;;;;29.20;99.90;;;;;;5033500;28;20384;-72
2021/06/13 13:04:54;;;;;;;;;;;28.50;99.90;;;;;;5036140;28;20531;-73
2021/06/13 13:07:30;;;;;;;;;;;28.00;99.90;;;;;;4974597;28;19971;-71
2021/06/13 13:10:03;;;;;;;;;;;27.80;99.90;;;;;;5028659;28;19927;-72
2021/06/13 13:12:28;;;;;;;;;;;27.50;99.90;;;;;;5036206;28;20382;-72
2021/06/13 13:15:07;;;;;;;;;;;27.10;99.90;;;;;;5038443;28;19913;-72
2021/06/13 13:17:32;;;;;;;;;;;26.80;99.90;;;;;;5037469;28;19913;-71
2021/06/13 13:19:58;;;;;;;;;;;26.90;99.90;;;;;;5036540;28;20007;-71
2021/06/13 13:22:25;;;;;;;;;;;27.00;99.90;;;;;;5032401;28;19920;-72
2021/06/13 13:24:51;;;;;;;;;;;26.70;99.90;;;;;;5033956;28;20283;-71
2021/06/13 13:27:17;;;;;;;;;;;26.30;99.90;;;;;;5033055;28;19914;-72
2021/06/13 13:29:47;;;;;;;;;;;25.90;99.90;;;;;;5034233;28;19921;-72
2021/06/13 13:32:13;;;;;;;;;;;25.70;99.90;;;;;;5032415;28;19913;-73
2021/06/13 13:34:39;;;;;;;;;;;25.50;99.90;;;;;;5032804;28;19921;-74
2021/06/13 13:37:09;;;;;;;;;;;25.50;99.90;;;;;;5034017;28;19909;-72
2021/06/13 13:39:36;;;;;;;;;;;25.50;99.90;;;;;;5031204;28;20004;-71
2021/06/13 13:42:02;;;;;;;;;;;25.70;99.90;;;;;;5033796;28;19913;-71
2021/06/13 13:44:29;;;;;;;;;;;25.70;99.90;;;;;;5035128;28;19910;-72
2021/06/13 13:47:24;;;;;;;;;;;25.80;99.90;;;;;;5022713;28;19920;-72
2021/06/13 13:49:59;;;;;;;;;;;26.20;99.90;;;;;;5039764;28;20036;-72
2021/06/13 13:52:25;;;;;;;;;;;26.40;99.90;;;;;;5049858;28;19920;-72
2021/06/13 13:55:03;;;;;;;;;;;26.70;99.90;;;;;;5045687;28;19913;-72
2021/06/13 13:57:42;;;;;;;;;;;26.90;99.90;;;;;;5033426;28;19979;-72
2021/06/13 14:00:08;;;;;;;;;;;27.30;99.90;;;;;;5034163;28;19910;-72
2021/06/13 14:02:34;;;;;;;;;;;27.40;99.90;;;;;;5031642;28;19920;-72
2021/06/13 14:04:59;;;;;;;;;;;27.30;99.90;;;;;;5032203;28;19953;-72
2021/06/13 14:07:30;;;;;;;;;;;27.20;99.90;;;;;;5030911;28;19913;-72
2021/06/13 14:09:55;;;;;;;;;;;27.00;99.90;;;;;;5032798;28;20038;-72
2021/06/13 14:12:21;;;;;;;;;;;26.70;99.90;;;;;;5033752;28;19955;-72
2021/06/13 14:14:46;;;;;;;;;;;26.50;99.90;;;;;;5032838;28;19969;-71
2021/06/13 14:17:12;;;;;;;;;;;26.40;99.90;;;;;;5031065;28;20278;-73
2021/06/13 14:19:38;;;;;;;;;;;26.40;99.90;;;;;;5030966;28;20386;-70
2021/06/13 14:22:04;;;;;;;;;;;26.40;99.90;;;;;;5032035;28;19913;-72
2021/06/13 14:24:29;;;;;;;;;;;26.50;99.90;;;;;;5031351;28;19921;-71
2021/06/13 14:26:57;;;;;;;;;;;26.40;99.90;;;;;;5032722;28;19913;-72